Time;durP1;ratioP1;P1;durP2;ratioP2;P2;SDS_P1;SDS_P2;PMS_P1;PMS_P2;Temp;Humidity;BMP_temperature;BMP_pressure;BME280_temperature;BME280_humidity;BME280_pressure;Samples;Min_cycle;Max_cycle;Signal;HPM_P1;HPM_P2
2022/10/29 00:02:16;;;;;;;16.73;10.50;;;;;;;;;;5044400;28;20194;-69
2022/10/29 00:04:43;;;;;;;15.53;10.10;;;;;;;;;;5037008;28;20233;-69
2022/10/29 00:07:09;;;;;;;13.73;10.30;;;;;;;;;;5030676;28;20241;-69
2022/10/29 00:09:36;;;;;;;15.77;10.93;;;;;;;;;;5030062;28;20253;-69
2022/10/29 00:12:03;;;;;;;15.00;10.10;;;;;;;;;;5029865;28;20257;-69
2022/10/29 00:14:30;;;;;;;15.57;9.93;;;;;;;;;;5031075;28;20270;-69
2022/10/29 00:16:56;;;;;;;15.57;10.00;;;;;;;;;;5031247;28;20532;-69
2022/10/29 00:19:23;;;;;;;17.27;9.53;;;;;;;;;;5031111;28;20207;-69
2022/10/29 00:21:50;;;;;;;17.67;9.70;;;;;;;;;;5029223;28;20203;-70
2022/10/29 00:24:16;;;;;;;11.40;9.83;;;;;;;;;;5029392;28;20271;-69
2022/10/29 00:26:43;;;;;;;14.60;9.70;;;;;;;;;;5030907;28;20191;-69
2022/10/29 00:29:09;;;;;;;17.20;10.00;;;;;;;;;;5030655;28;20536;-69
2022/10/29 00:31:36;;;;;;;14.03;9.60;;;;;;;;;;5031056;28;20219;-69
2022/10/29 00:34:03;;;;;;;15.93;9.47;;;;;;;;;;5045968;28;20191;-69
2022/10/29 00:36:29;;;;;;;12.63;9.50;;;;;;;;;;5045611;28;20184;-69
2022/10/29 00:38:56;;;;;;;15.83;8.93;;;;;;;;;;5030536;28;20192;-70
2022/10/29 00:41:27;;;;;;;17.93;9.20;;;;;;;;;;5029351;28;20199;-69
2022/10/29 00:44:12;;;;;;;17.50;8.67;;;;;;;;;;5040098;28;20530;-70
2022/10/29 00:46:40;;;;;;;14.90;8.87;;;;;;;;;;5050638;28;20198;-70
2022/10/29 00:49:06;;;;;;;14.53;9.10;;;;;;;;;;5048922;28;20250;-70
2022/10/29 00:51:33;;;;;;;16.50;9.33;;;;;;;;;;5050244;28;20191;-69
2022/10/29 00:54:07;;;;;;;16.50;9.07;;;;;;;;;;5065525;28;20265;-70
2022/10/29 00:56:34;;;;;;;11.60;8.70;;;;;;;;;;5065041;28;20626;-70
2022/10/29 00:59:01;;;;;;;12.70;9.00;;;;;;;;;;5065972;28;20211;-69
2022/10/29 01:01:27;;;;;;;21.07;8.90;;;;;;;;;;5049821;28;20190;-69
2022/10/29 01:03:54;;;;;;;14.00;8.97;;;;;;;;;;5041601;28;20218;-71
2022/10/29 01:06:21;;;;;;;12.73;8.90;;;;;;;;;;5061462;28;20191;-70
2022/10/29 01:08:48;;;;;;;13.70;9.07;;;;;;;;;;5028650;28;20287;-70
2022/10/29 01:11:24;;;;;;;14.20;9.67;;;;;;;;;;5029926;28;20191;-69
2022/10/29 01:14:09;;;;;;;13.40;8.60;;;;;;;;;;5045309;28;20218;-70
2022/10/29 01:16:42;;;;;;;15.60;8.37;;;;;;;;;;5030260;28;20849;-69
2022/10/29 01:19:11;;;;;;;14.97;9.73;;;;;;;;;;5028545;28;20196;-69
2022/10/29 01:21:50;;;;;;;14.63;9.27;;;;;;;;;;5044993;28;20563;-69
2022/10/29 01:24:17;;;;;;;13.27;8.83;;;;;;;;;;5028600;28;20275;-69
2022/10/29 01:26:46;;;;;;;12.80;9.03;;;;;;;;;;5029337;28;20286;-69
2022/10/29 01:29:13;;;;;;;13.83;8.63;;;;;;;;;;5028364;28;20183;-69
2022/10/29 01:31:57;;;;;;;14.90;9.10;;;;;;;;;;5029775;28;20220;-69
2022/10/29 01:34:39;;;;;;;16.00;9.30;;;;;;;;;;5029811;28;20588;-69
2022/10/29 01:37:24;;;;;;;12.70;9.03;;;;;;;;;;5029200;28;20183;-70
2022/10/29 01:39:52;;;;;;;17.23;9.33;;;;;;;;;;5029320;28;20204;-69
2022/10/29 01:42:30;;;;;;;13.27;8.90;;;;;;;;;;5044787;28;20219;-69
2022/10/29 01:45:08;;;;;;;16.40;9.27;;;;;;;;;;5028112;28;20252;-70
2022/10/29 01:47:36;;;;;;;11.77;9.00;;;;;;;;;;5044561;28;20195;-69
2022/10/29 01:50:04;;;;;;;13.83;9.17;;;;;;;;;;5044897;28;20231;-69
2022/10/29 01:52:31;;;;;;;14.83;8.77;;;;;;;;;;5029200;28;20223;-69
2022/10/29 01:54:58;;;;;;;15.40;8.53;;;;;;;;;;5044543;28;20195;-69
2022/10/29 01:57:24;;;;;;;12.77;7.80;;;;;;;;;;5028926;28;20218;-69
2022/10/29 01:59:53;;;;;;;13.60;8.17;;;;;;;;;;5028900;28;20198;-69
2022/10/29 02:02:28;;;;;;;14.00;8.27;;;;;;;;;;5044475;28;20535;-69
2022/10/29 02:05:13;;;;;;;14.60;9.07;;;;;;;;;;5044209;28;20187;-69
2022/10/29 02:07:45;;;;;;;15.57;8.47;;;;;;;;;;5049210;28;20191;-69
2022/10/29 02:10:13;;;;;;;15.03;8.37;;;;;;;;;;5047990;28;20682;-69
2022/10/29 02:12:50;;;;;;;17.33;8.73;;;;;;;;;;5049006;28;20400;-70
2022/10/29 02:15:24;;;;;;;12.00;7.77;;;;;;;;;;5051498;28;20200;-69
2022/10/29 02:17:51;;;;;;;12.83;8.40;;;;;;;;;;5064353;28;20194;-69
2022/10/29 02:20:17;;;;;;;13.13;8.43;;;;;;;;;;5064431;28;20697;-69
2022/10/29 02:22:44;;;;;;;16.83;8.10;;;;;;;;;;5064318;28;20201;-69
2022/10/29 02:25:10;;;;;;;11.63;7.83;;;;;;;;;;5064399;28;20991;-69
2022/10/29 02:27:37;;;;;;;13.10;8.33;;;;;;;;;;5064255;28;20217;-69
2022/10/29 02:30:04;;;;;;;14.73;8.13;;;;;;;;;;5043247;28;20192;-69
2022/10/29 02:32:31;;;;;;;14.43;7.93;;;;;;;;;;5028995;28;20196;-69
2022/10/29 02:34:59;;;;;;;12.27;7.93;;;;;;;;;;5029239;28;20536;-70
2022/10/29 02:37:26;;;;;;;13.00;7.77;;;;;;;;;;5028695;28;20199;-69
2022/10/29 02:39:52;;;;;;;16.77;8.50;;;;;;;;;;5028742;28;20196;-69
2022/10/29 02:42:36;;;;;;;14.47;7.70;;;;;;;;;;5028871;28;20262;-70
2022/10/29 02:45:03;;;;;;;12.60;8.37;;;;;;;;;;5027758;28;20191;-69
2022/10/29 02:47:31;;;;;;;14.80;8.47;;;;;;;;;;5043812;28;20195;-69
2022/10/29 02:49:57;;;;;;;15.10;8.73;;;;;;;;;;5029316;28;20227;-69
2022/10/29 02:52:24;;;;;;;19.03;9.73;;;;;;;;;;5028310;28;20667;-69
2022/10/29 02:54:50;;;;;;;26.03;10.40;;;;;;;;;;5028668;28;20185;-69
2022/10/29 02:57:17;;;;;;;18.73;9.17;;;;;;;;;;5028933;28;20650;-69
2022/10/29 02:59:44;;;;;;;17.50;8.93;;;;;;;;;;5028820;28;20728;-69
2022/10/29 03:02:10;;;;;;;15.90;8.40;;;;;;;;;;5028410;28;20187;-69
2022/10/29 03:04:38;;;;;;;15.70;8.73;;;;;;;;;;5038001;28;20198;-69
2022/10/29 03:07:05;;;;;;;15.07;7.80;;;;;;;;;;5028655;28;20944;-69
2022/10/29 03:09:31;;;;;;;14.30;8.53;;;;;;;;;;5029946;28;20306;-70
2022/10/29 03:11:58;;;;;;;14.67;8.03;;;;;;;;;;5032449;28;20211;-69
2022/10/29 03:14:25;;;;;;;14.53;8.03;;;;;;;;;;5044181;28;20238;-69
2022/10/29 03:16:51;;;;;;;16.60;7.77;;;;;;;;;;5052268;28;20265;-69
2022/10/29 03:19:18;;;;;;;12.67;7.97;;;;;;;;;;5052137;28;20179;-69
2022/10/29 03:21:44;;;;;;;14.90;8.57;;;;;;;;;;5051874;28;20272;-69
2022/10/29 03:24:11;;;;;;;13.67;7.33;;;;;;;;;;5051909;28;20586;-69
2022/10/29 03:26:38;;;;;;;13.57;8.67;;;;;;;;;;5051936;28;20190;-69
2022/10/29 03:29:04;;;;;;;18.03;8.27;;;;;;;;;;5052183;28;20183;-69
2022/10/29 03:31:31;;;;;;;16.57;8.30;;;;;;;;;;5050373;28;20206;-69
2022/10/29 03:33:58;;;;;;;16.37;8.97;;;;;;;;;;5050567;28;20589;-69
2022/10/29 03:36:24;;;;;;;14.03;8.17;;;;;;;;;;5049016;28;20194;-68
2022/10/29 03:38:51;;;;;;;12.07;7.97;;;;;;;;;;5031510;28;20195;-69
2022/10/29 03:41:17;;;;;;;14.77;9.27;;;;;;;;;;5047237;28;20301;-69
2022/10/29 03:43:44;;;;;;;17.07;8.83;;;;;;;;;;5031977;28;20717;-69
2022/10/29 03:46:11;;;;;;;15.63;8.83;;;;;;;;;;5046974;28;20198;-69
2022/10/29 03:48:37;;;;;;;14.77;8.23;;;;;;;;;;5031329;28;20257;-69
2022/10/29 03:51:04;;;;;;;15.83;8.67;;;;;;;;;;5043288;28;20195;-69
2022/10/29 03:53:31;;;;;;;15.40;8.20;;;;;;;;;;5066495;28;20218;-69
2022/10/29 03:55:58;;;;;;;13.87;8.77;;;;;;;;;;5064998;28;20650;-70
2022/10/29 03:58:25;;;;;;;14.33;8.67;;;;;;;;;;5044599;28;20191;-69
2022/10/29 04:00:52;;;;;;;16.77;9.03;;;;;;;;;;5033084;28;20203;-69
2022/10/29 04:03:18;;;;;;;17.57;9.13;;;;;;;;;;5054749;28;20194;-69
2022/10/29 04:05:45;;;;;;;15.63;8.77;;;;;;;;;;5030071;28;20198;-69
2022/10/29 04:08:12;;;;;;;18.40;9.77;;;;;;;;;;5042180;28;20256;-69
2022/10/29 04:10:42;;;;;;;16.17;9.50;;;;;;;;;;5051354;28;20201;-69
2022/10/29 04:13:09;;;;;;;16.50;8.57;;;;;;;;;;5048064;28;20194;-70
2022/10/29 04:15:36;;;;;;;16.27;8.67;;;;;;;;;;5043278;28;20237;-69
2022/10/29 04:18:02;;;;;;;18.87;9.47;;;;;;;;;;5030463;28;20187;-68
2022/10/29 04:20:29;;;;;;;18.20;9.00;;;;;;;;;;5029606;28;20563;-69
2022/10/29 04:23:15;;;;;;;16.83;9.17;;;;;;;;;;5031697;28;20195;-69
2022/10/29 04:26:02;;;;;;;17.80;9.67;;;;;;;;;;5044263;28;20223;-69
2022/10/29 04:28:49;;;;;;;17.47;9.80;;;;;;;;;;5038130;28;20190;-69
2022/10/29 04:31:16;;;;;;;17.07;9.77;;;;;;;;;;5045191;28;20230;-69
2022/10/29 04:33:42;;;;;;;19.30;10.60;;;;;;;;;;5038732;28;20200;-69
2022/10/29 04:36:09;;;;;;;19.87;10.23;;;;;;;;;;5046186;28;20226;-70
2022/10/29 04:38:36;;;;;;;22.50;11.07;;;;;;;;;;5049352;28;20650;-69
2022/10/29 04:41:02;;;;;;;19.33;10.30;;;;;;;;;;5048367;28;20238;-69
2022/10/29 04:43:29;;;;;;;23.73;13.90;;;;;;;;;;5036785;28;20192;-69
2022/10/29 04:45:56;;;;;;;23.33;14.27;;;;;;;;;;5030590;28;20658;-70
2022/10/29 04:48:23;;;;;;;29.07;14.87;;;;;;;;;;5048187;28;20217;-69
2022/10/29 04:50:50;;;;;;;27.77;16.70;;;;;;;;;;5030081;28;20961;-69
2022/10/29 04:53:16;;;;;;;25.93;16.07;;;;;;;;;;5029230;28;20663;-69
2022/10/29 04:55:43;;;;;;;28.90;17.57;;;;;;;;;;5013374;28;20607;-69
2022/10/29 04:58:13;;;;;;;31.07;17.47;;;;;;;;;;5034225;28;20194;-69
2022/10/29 05:00:40;;;;;;;33.53;18.30;;;;;;;;;;5030076;28;20317;-69
2022/10/29 05:03:07;;;;;;;29.47;18.33;;;;;;;;;;5030133;28;20265;-69
2022/10/29 05:05:34;;;;;;;34.27;18.60;;;;;;;;;;5043186;28;20195;-69
2022/10/29 05:08:01;;;;;;;32.37;17.90;;;;;;;;;;5048141;28;20190;-69
2022/10/29 05:10:30;;;;;;;31.50;17.77;;;;;;;;;;5029620;28;20195;-69
2022/10/29 05:12:57;;;;;;;35.13;19.20;;;;;;;;;;5030971;28;20282;-69
2022/10/29 05:15:24;;;;;;;38.77;18.80;;;;;;;;;;5034595;28;20191;-70
2022/10/29 05:18:08;;;;;;;33.97;18.27;;;;;;;;;;5030415;28;20167;-69
2022/10/29 05:20:35;;;;;;;31.73;17.13;;;;;;;;;;5027645;28;20226;-69
2022/10/29 05:23:03;;;;;;;33.57;17.40;;;;;;;;;;5032461;28;20219;-69
2022/10/29 05:25:29;;;;;;;23.87;12.73;;;;;;;;;;5046837;28;20252;-68
2022/10/29 05:28:00;;;;;;;27.50;15.03;;;;;;;;;;5046769;28;20238;-69
2022/10/29 05:30:27;;;;;;;33.20;16.00;;;;;;;;;;5046270;28;20216;-70
2022/10/29 05:32:54;;;;;;;31.47;15.70;;;;;;;;;;5032474;28;20292;-70
2022/10/29 05:35:21;;;;;;;29.43;16.37;;;;;;;;;;5047889;28;20237;-71
2022/10/29 05:37:54;;;;;;;29.50;14.37;;;;;;;;;;5046429;28;20256;-71
2022/10/29 05:40:22;;;;;;;34.43;14.60;;;;;;;;;;5041992;28;20289;-70
2022/10/29 05:42:48;;;;;;;26.93;14.90;;;;;;;;;;5044573;28;20704;-71
2022/10/29 05:45:15;;;;;;;27.63;13.47;;;;;;;;;;5026074;28;20184;-71
2022/10/29 05:47:42;;;;;;;25.47;13.53;;;;;;;;;;5037664;28;20218;-70
2022/10/29 05:50:09;;;;;;;24.43;11.77;;;;;;;;;;5040369;28;20234;-68
2022/10/29 05:52:37;;;;;;;27.10;14.03;;;;;;;;;;5032208;28;20726;-69
2022/10/29 05:55:04;;;;;;;31.50;14.10;;;;;;;;;;5024204;28;20191;-72
2022/10/29 05:57:31;;;;;;;26.90;12.83;;;;;;;;;;5043664;28;20274;-67
2022/10/29 05:59:59;;;;;;;26.40;11.93;;;;;;;;;;5041302;28;20198;-69
2022/10/29 06:02:25;;;;;;;21.37;12.30;;;;;;;;;;5059553;28;20299;-70
2022/10/29 06:04:52;;;;;;;20.67;11.17;;;;;;;;;;5026655;28;20517;-69
2022/10/29 06:07:19;;;;;;;21.23;10.37;;;;;;;;;;5027865;28;20261;-70
2022/10/29 06:09:46;;;;;;;19.90;10.23;;;;;;;;;;5054150;28;20221;-72
2022/10/29 06:12:13;;;;;;;17.27;8.77;;;;;;;;;;5047254;28;20195;-72
2022/10/29 06:14:39;;;;;;;18.60;9.60;;;;;;;;;;5030009;28;20198;-70
2022/10/29 06:17:06;;;;;;;15.77;9.43;;;;;;;;;;5025536;28;20183;-69
2022/10/29 06:19:33;;;;;;;17.10;8.83;;;;;;;;;;5040206;28;20187;-73
2022/10/29 06:22:00;;;;;;;18.67;9.07;;;;;;;;;;5048869;28;20709;-68
2022/10/29 06:24:26;;;;;;;14.33;9.00;;;;;;;;;;5028689;28;20199;-69
2022/10/29 06:26:53;;;;;;;16.10;8.30;;;;;;;;;;5026366;28;20204;-69
2022/10/29 06:29:20;;;;;;;12.87;7.30;;;;;;;;;;5058081;28;20197;-70
2022/10/29 06:31:46;;;;;;;15.70;8.03;;;;;;;;;;5038751;28;20188;-71
2022/10/29 06:34:15;;;;;;;15.27;7.30;;;;;;;;;;5026045;28;20187;-74
2022/10/29 06:36:42;;;;;;;13.33;6.47;;;;;;;;;;5026046;28;20235;-70
2022/10/29 06:39:08;;;;;;;15.53;6.57;;;;;;;;;;5023286;28;20215;-69
2022/10/29 06:41:35;;;;;;;14.53;7.00;;;;;;;;;;5045157;28;20273;-71
2022/10/29 06:44:02;;;;;;;12.97;6.27;;;;;;;;;;5037019;28;20203;-71
2022/10/29 06:46:29;;;;;;;11.17;6.90;;;;;;;;;;5040014;28;20206;-70
2022/10/29 06:48:56;;;;;;;12.73;6.20;;;;;;;;;;5039600;28;20242;-69
2022/10/29 06:51:23;;;;;;;12.83;6.50;;;;;;;;;;5038171;28;20198;-70
2022/10/29 06:53:49;;;;;;;13.13;6.00;;;;;;;;;;5027554;28;20192;-69
2022/10/29 06:56:18;;;;;;;11.47;5.50;;;;;;;;;;5035332;28;20620;-69
2022/10/29 06:58:45;;;;;;;13.73;6.07;;;;;;;;;;5038976;28;20207;-68
2022/10/29 07:01:12;;;;;;;12.07;5.90;;;;;;;;;;5027719;28;20211;-68
2022/10/29 07:03:39;;;;;;;12.37;5.03;;;;;;;;;;5035610;28;20191;-69
2022/10/29 07:06:05;;;;;;;12.27;4.70;;;;;;;;;;5046543;28;20195;-73
2022/10/29 07:08:34;;;;;;;11.17;5.27;;;;;;;;;;5029885;28;20183;-73
2022/10/29 07:11:03;;;;;;;13.07;5.17;;;;;;;;;;5022001;28;20898;-72
2022/10/29 07:13:31;;;;;;;10.63;5.00;;;;;;;;;;5027802;28;20238;-72
2022/10/29 07:16:03;;;;;;;12.03;5.23;;;;;;;;;;5032347;28;20186;-72
2022/10/29 07:18:31;;;;;;;13.13;4.90;;;;;;;;;;5039574;28;20208;-69
2022/10/29 07:21:02;;;;;;;13.50;5.37;;;;;;;;;;5050101;28;20195;-69
2022/10/29 07:23:32;;;;;;;8.13;4.33;;;;;;;;;;5048562;28;20201;-72
2022/10/29 07:26:01;;;;;;;14.23;4.70;;;;;;;;;;5059111;28;20191;-72
2022/10/29 07:28:28;;;;;;;11.90;4.70;;;;;;;;;;5040359;28;20241;-71
2022/10/29 07:30:57;;;;;;;10.90;4.30;;;;;;;;;;5034847;28;20186;-71
2022/10/29 07:33:24;;;;;;;9.57;4.07;;;;;;;;;;5045255;28;20573;-71
2022/10/29 07:35:51;;;;;;;10.37;4.50;;;;;;;;;;5052428;28;20245;-72
2022/10/29 07:38:18;;;;;;;11.57;4.40;;;;;;;;;;5043871;28;20249;-69
2022/10/29 07:40:45;;;;;;;11.90;4.53;;;;;;;;;;5031919;28;20183;-70
2022/10/29 07:43:12;;;;;;;12.50;3.97;;;;;;;;;;5040905;28;20202;-70
2022/10/29 07:45:38;;;;;;;11.87;4.20;;;;;;;;;;5032999;28;20289;-70
2022/10/29 07:48:22;;;;;;;12.20;4.00;;;;;;;;;;5047584;28;20886;-70
2022/10/29 07:50:49;;;;;;;8.20;3.33;;;;;;;;;;5052916;28;20680;-69
2022/10/29 07:53:16;;;;;;;10.90;3.40;;;;;;;;;;5052105;28;20201;-70
2022/10/29 07:55:42;;;;;;;7.67;3.30;;;;;;;;;;5051508;28;20237;-69
2022/10/29 07:58:10;;;;;;;9.30;3.87;;;;;;;;;;5039028;28;20191;-70
2022/10/29 08:00:37;;;;;;;7.07;2.77;;;;;;;;;;5038536;28;20202;-69
2022/10/29 08:03:04;;;;;;;11.00;3.40;;;;;;;;;;5024232;28;20229;-70
2022/10/29 08:05:31;;;;;;;11.07;3.80;;;;;;;;;;5032704;28;20183;-69
2022/10/29 08:07:58;;;;;;;11.47;3.73;;;;;;;;;;5050661;28;20277;-69
2022/10/29 08:10:25;;;;;;;9.30;3.40;;;;;;;;;;5051020;28;20194;-69
2022/10/29 08:12:53;;;;;;;9.47;2.83;;;;;;;;;;5050702;28;20183;-69
2022/10/29 08:15:37;;;;;;;8.40;3.20;;;;;;;;;;5050509;28;20591;-69
2022/10/29 08:18:08;;;;;;;8.97;3.43;;;;;;;;;;5039010;28;20195;-70
2022/10/29 08:20:35;;;;;;;10.80;3.13;;;;;;;;;;5054756;28;20289;-69
2022/10/29 08:23:01;;;;;;;10.70;3.13;;;;;;;;;;5043063;28;20214;-71
2022/10/29 08:25:28;;;;;;;11.43;3.13;;;;;;;;;;5048607;28;20218;-70
2022/10/29 08:28:02;;;;;;;8.30;2.20;;;;;;;;;;5047831;28;20274;-69
2022/10/29 08:30:29;;;;;;;12.47;3.90;;;;;;;;;;5040496;28;20554;-69
2022/10/29 08:32:56;;;;;;;10.03;3.40;;;;;;;;;;5043227;28;20707;-70
2022/10/29 08:35:23;;;;;;;9.57;3.20;;;;;;;;;;5029472;28;20196;-71
2022/10/29 08:37:50;;;;;;;10.97;3.10;;;;;;;;;;5036923;28;20862;-71
2022/10/29 08:40:20;;;;;;;9.73;3.30;;;;;;;;;;5027205;28;20231;-71
2022/10/29 08:42:51;;;;;;;10.63;3.03;;;;;;;;;;5031474;28;20222;-71
2022/10/29 08:45:28;;;;;;;8.17;3.00;;;;;;;;;;5037604;28;20282;-70
2022/10/29 08:48:16;;;;;;;9.13;3.03;;;;;;;;;;5038130;28;20213;-70
2022/10/29 08:50:43;;;;;;;10.20;2.97;;;;;;;;;;5033952;28;20225;-67
2022/10/29 08:53:17;;;;;;;5.10;2.23;;;;;;;;;;5038428;28;20250;-69
2022/10/29 08:55:50;;;;;;;10.83;3.47;;;;;;;;;;5029721;28;20199;-68
2022/10/29 08:58:18;;;;;;;9.20;2.90;;;;;;;;;;5036066;28;21563;-69
2022/10/29 09:00:45;;;;;;;10.10;2.60;;;;;;;;;;5044182;28;20193;-70
2022/10/29 09:03:12;;;;;;;9.70;3.10;;;;;;;;;;5043172;28;20238;-69
2022/10/29 09:05:49;;;;;;;6.07;2.50;;;;;;;;;;5035914;28;20214;-68
2022/10/29 09:08:19;;;;;;;6.13;2.57;;;;;;;;;;5045953;28;20182;-68
2022/10/29 09:10:46;;;;;;;8.10;2.70;;;;;;;;;;5046459;28;20708;-68
2022/10/29 09:13:20;;;;;;;10.93;2.87;;;;;;;;;;5045014;28;20186;-69
2022/10/29 09:16:01;;;;;;;6.93;2.13;;;;;;;;;;5032204;28;20196;-68
2022/10/29 09:18:46;;;;;;;8.53;2.33;;;;;;;;;;5040057;28;20878;-69
2022/10/29 09:21:25;;;;;;;10.13;2.47;;;;;;;;;;5041774;28;20187;-69
2022/10/29 09:24:11;;;;;;;8.20;2.20;;;;;;;;;;5044057;28;20588;-68
2022/10/29 09:26:50;;;;;;;9.27;2.80;;;;;;;;;;5034764;28;20191;-68
2022/10/29 09:29:29;;;;;;;10.67;2.30;;;;;;;;;;5041419;28;20202;-71
2022/10/29 09:32:00;;;;;;;8.63;2.67;;;;;;;;;;5033759;28;20524;-70
2022/10/29 09:34:27;;;;;;;6.50;2.53;;;;;;;;;;5037992;28;20282;-68
2022/10/29 09:36:54;;;;;;;8.73;2.73;;;;;;;;;;5041145;28;20190;-68
2022/10/29 09:39:41;;;;;;;6.87;2.50;;;;;;;;;;5044109;28;20545;-67
2022/10/29 09:42:12;;;;;;;10.80;2.70;;;;;;;;;;5031393;28;20254;-71
2022/10/29 09:44:39;;;;;;;9.23;3.27;;;;;;;;;;5050874;28;20282;-67
2022/10/29 09:47:06;;;;;;;9.80;2.67;;;;;;;;;;5038946;28;20590;-68
2022/10/29 09:49:41;;;;;;;8.20;2.57;;;;;;;;;;5034660;28;20214;-71
2022/10/29 09:52:34;;;;;;;10.40;2.60;;;;;;;;;;5033106;28;20187;-69
2022/10/29 09:55:02;;;;;;;7.13;2.10;;;;;;;;;;5029906;28;20796;-69
2022/10/29 09:57:29;;;;;;;6.87;2.43;;;;;;;;;;5024232;28;20183;-72
2022/10/29 09:59:56;;;;;;;8.67;2.03;;;;;;;;;;5016371;28;20199;-68
2022/10/29 10:02:41;;;;;;;7.23;2.00;;;;;;;;;;5040472;28;20218;-67
2022/10/29 10:05:11;;;;;;;8.10;2.37;;;;;;;;;;5034247;28;20230;-68
2022/10/29 10:07:38;;;;;;;5.37;1.97;;;;;;;;;;5041920;28;20176;-68
2022/10/29 10:10:06;;;;;;;8.87;2.40;;;;;;;;;;5038168;28;20812;-70
2022/10/29 10:12:35;;;;;;;7.40;2.73;;;;;;;;;;5037314;28;20192;-70
2022/10/29 10:15:02;;;;;;;11.83;2.70;;;;;;;;;;5031466;28;20192;-70
2022/10/29 10:17:49;;;;;;;6.70;2.23;;;;;;;;;;5040898;28;20719;-69
2022/10/29 10:20:37;;;;;;;5.93;2.60;;;;;;;;;;5040811;28;20787;-71
2022/10/29 10:23:21;;;;;;;7.27;2.50;;;;;;;;;;5044404;28;20759;-70
2022/10/29 10:25:47;;;;;;;5.60;2.10;;;;;;;;;;5024188;28;20192;-71
2022/10/29 10:28:19;;;;;;;9.10;2.43;;;;;;;;;;5057335;28;20191;-71
2022/10/29 10:31:03;;;;;;;7.57;2.27;;;;;;;;;;5041344;28;20196;-71
2022/10/29 10:33:31;;;;;;;8.27;2.07;;;;;;;;;;5038941;28;20278;-69
2022/10/29 10:36:05;;;;;;;9.37;2.00;;;;;;;;;;5045585;28;20212;-69
2022/10/29 10:38:42;;;;;;;6.37;2.07;;;;;;;;;;5030237;28;20278;-69
2022/10/29 10:41:09;;;;;;;8.07;2.53;;;;;;;;;;5041544;28;20661;-69
2022/10/29 10:43:36;;;;;;;8.57;2.20;;;;;;;;;;5050116;28;20206;-69
2022/10/29 10:46:03;;;;;;;12.33;1.93;;;;;;;;;;5046871;28;20199;-69
2022/10/29 10:48:30;;;;;;;8.67;2.53;;;;;;;;;;5016165;28;20195;-69
2022/10/29 10:51:09;;;;;;;6.57;2.00;;;;;;;;;;5035697;28;20219;-70
2022/10/29 10:53:38;;;;;;;5.47;2.20;;;;;;;;;;5048290;28;20190;-69
2022/10/29 10:56:05;;;;;;;9.00;2.30;;;;;;;;;;5038276;28;20221;-70
2022/10/29 10:58:36;;;;;;;7.77;2.27;;;;;;;;;;5051539;28;20195;-69
2022/10/29 11:01:03;;;;;;;5.23;1.90;;;;;;;;;;5052108;28;20221;-69
2022/10/29 11:03:37;;;;;;;9.47;2.13;;;;;;;;;;5047960;28;20229;-69
2022/10/29 11:06:07;;;;;;;7.27;2.10;;;;;;;;;;5051892;28;20221;-69
2022/10/29 11:08:44;;;;;;;11.23;4.83;;;;;;;;;;5053793;28;20237;-69
2022/10/29 11:11:19;;;;;;;10.57;2.67;;;;;;;;;;5052386;28;20190;-69
2022/10/29 11:13:46;;;;;;;6.07;2.10;;;;;;;;;;5047688;28;20651;-70
2022/10/29 11:16:20;;;;;;;7.93;2.77;;;;;;;;;;5037630;28;20191;-70
2022/10/29 11:18:49;;;;;;;9.07;2.53;;;;;;;;;;5045513;28;20685;-70
2022/10/29 11:21:18;;;;;;;8.43;2.60;;;;;;;;;;5033093;28;20781;-69
2022/10/29 11:23:48;;;;;;;7.60;2.00;;;;;;;;;;5045145;28;20272;-69
2022/10/29 11:26:33;;;;;;;9.03;2.20;;;;;;;;;;5029485;28;20195;-70
2022/10/29 11:29:18;;;;;;;6.67;2.00;;;;;;;;;;5040982;28;20274;-69
2022/10/29 11:31:57;;;;;;;8.57;2.50;;;;;;;;;;5052366;28;20183;-69
2022/10/29 11:34:26;;;;;;;6.97;1.90;;;;;;;;;;5034935;28;20198;-69
2022/10/29 11:36:57;;;;;;;8.23;2.10;;;;;;;;;;5050824;28;20190;-69
2022/10/29 11:39:35;;;;;;;8.70;2.20;;;;;;;;;;5053175;28;20692;-69
2022/10/29 11:42:02;;;;;;;7.80;2.03;;;;;;;;;;5051609;28;20605;-69
2022/10/29 11:44:29;;;;;;;7.00;1.87;;;;;;;;;;5047257;28;20191;-69
2022/10/29 11:46:55;;;;;;;5.17;1.53;;;;;;;;;;5046162;28;20191;-69
2022/10/29 11:49:28;;;;;;;6.03;1.67;;;;;;;;;;5032183;28;20231;-69
2022/10/29 11:51:55;;;;;;;8.60;1.90;;;;;;;;;;5042454;28;20241;-69
2022/10/29 11:54:21;;;;;;;8.27;2.10;;;;;;;;;;5037547;28;20226;-69
2022/10/29 11:56:51;;;;;;;7.93;2.70;;;;;;;;;;5030032;28;20638;-70
2022/10/29 11:59:36;;;;;;;12.03;4.60;;;;;;;;;;5055032;28;20189;-69
2022/10/29 12:02:18;;;;;;;4.57;1.30;;;;;;;;;;5058673;28;20201;-69
2022/10/29 12:04:45;;;;;;;6.23;1.77;;;;;;;;;;5031700;28;20192;-69
2022/10/29 12:07:30;;;;;;;8.77;1.77;;;;;;;;;;5051840;28;20222;-68
2022/10/29 12:09:56;;;;;;;5.67;1.70;;;;;;;;;;5051490;28;20194;-68
2022/10/29 12:12:29;;;;;;;8.40;2.27;;;;;;;;;;5050743;28;20182;-68
2022/10/29 12:15:19;;;;;;;8.80;2.83;;;;;;;;;;5048710;28;20199;-68
2022/10/29 12:17:49;;;;;;;6.53;1.80;;;;;;;;;;5047920;28;20207;-69
2022/10/29 12:20:26;;;;;;;6.70;1.70;;;;;;;;;;5051212;28;20620;-68
2022/10/29 12:22:53;;;;;;;6.67;1.93;;;;;;;;;;5051121;28;20199;-69
2022/10/29 12:25:36;;;;;;;6.60;1.50;;;;;;;;;;5031360;28;20198;-69
2022/10/29 12:28:38;;;;;;;5.87;1.80;;;;;;;;;;5034819;28;20218;-70
2022/10/29 12:31:07;;;;;;;7.87;1.80;;;;;;;;;;4990854;28;20202;-70
2022/10/29 12:34:09;;;;;;;6.37;1.90;;;;;;;;;;5040661;28;20260;-70
2022/10/29 12:36:50;;;;;;;4.03;1.70;;;;;;;;;;5010799;28;20187;-71
2022/10/29 12:39:35;;;;;;;7.03;1.60;;;;;;;;;;5038669;28;20203;-70
2022/10/29 12:42:18;;;;;;;7.73;1.97;;;;;;;;;;5036511;28;20199;-70
2022/10/29 12:44:57;;;;;;;5.67;1.93;;;;;;;;;;5051443;28;20193;-71
2022/10/29 12:47:29;;;;;;;6.00;1.70;;;;;;;;;;5052774;28;20190;-70
2022/10/29 12:49:56;;;;;;;7.53;1.80;;;;;;;;;;5052301;28;20239;-70
2022/10/29 12:52:33;;;;;;;4.57;1.73;;;;;;;;;;5052672;28;20709;-70
2022/10/29 12:55:00;;;;;;;7.03;1.70;;;;;;;;;;5029731;28;20199;-69
2022/10/29 12:57:28;;;;;;;7.20;1.93;;;;;;;;;;5031876;28;20210;-69
2022/10/29 12:59:55;;;;;;;7.57;1.70;;;;;;;;;;5040712;28;20187;-70
2022/10/29 13:02:25;;;;;;;7.10;2.07;;;;;;;;;;5050117;28;20225;-70
2022/10/29 13:05:04;;;;;;;5.30;2.23;;;;;;;;;;5043363;28;20191;-69
2022/10/29 13:07:31;;;;;;;6.93;2.43;;;;;;;;;;5051587;28;20195;-70
2022/10/29 13:10:27;;;;;;;4.73;1.87;;;;;;;;;;5050808;28;20248;-70
2022/10/29 13:12:56;;;;;;;10.00;2.30;;;;;;;;;;5027676;28;20227;-68
2022/10/29 13:15:27;;;;;;;7.53;2.10;;;;;;;;;;5051543;28;20191;-68
2022/10/29 13:17:54;;;;;;;7.03;1.70;;;;;;;;;;5043723;28;20241;-69
2022/10/29 13:20:26;;;;;;;8.13;3.37;;;;;;;;;;5051630;28;20204;-68
2022/10/29 13:22:57;;;;;;;10.23;2.27;;;;;;;;;;5050818;28;20276;-68
2022/10/29 13:25:33;;;;;;;8.43;1.80;;;;;;;;;;5041475;28;20198;-68
2022/10/29 13:28:00;;;;;;;5.60;1.47;;;;;;;;;;5048074;28;20198;-69
2022/10/29 13:30:27;;;;;;;7.77;1.60;;;;;;;;;;5051465;28;20191;-68
2022/10/29 13:32:54;;;;;;;4.10;1.57;;;;;;;;;;5037733;28;20274;-68
2022/10/29 13:35:21;;;;;;;5.40;1.63;;;;;;;;;;5050409;28;20187;-68
2022/10/29 13:37:51;;;;;;;7.90;2.13;;;;;;;;;;5051706;28;20670;-69
2022/10/29 13:40:21;;;;;;;5.07;1.60;;;;;;;;;;5051730;28;20237;-68
2022/10/29 13:43:03;;;;;;;7.20;2.03;;;;;;;;;;5045834;28;20859;-70
2022/10/29 13:45:31;;;;;;;7.10;1.90;;;;;;;;;;5050753;28;20186;-70
2022/10/29 13:48:03;;;;;;;4.90;2.07;;;;;;;;;;5030957;28;20716;-69
2022/10/29 13:50:30;;;;;;;6.37;2.23;;;;;;;;;;5045475;28;20227;-73
2022/10/29 13:52:57;;;;;;;7.30;1.90;;;;;;;;;;5041195;28;20609;-71
2022/10/29 13:55:24;;;;;;;5.73;2.03;;;;;;;;;;5041496;28;20293;-70
2022/10/29 13:57:53;;;;;;;7.37;2.00;;;;;;;;;;5028387;28;20223;-69
2022/10/29 14:00:20;;;;;;;9.50;1.80;;;;;;;;;;5012270;28;20206;-69
2022/10/29 14:02:50;;;;;;;8.00;1.77;;;;;;;;;;5028027;28;20214;-72
2022/10/29 14:05:24;;;;;;;8.83;2.30;;;;;;;;;;5034258;28;20194;-68
2022/10/29 14:07:59;;;;;;;11.10;2.10;;;;;;;;;;5029267;28;20195;-68
2022/10/29 14:10:32;;;;;;;7.23;2.13;;;;;;;;;;5029211;28;20198;-68
2022/10/29 14:13:08;;;;;;;8.23;2.50;;;;;;;;;;5029403;28;20186;-68
2022/10/29 14:15:37;;;;;;;8.97;2.40;;;;;;;;;;5033304;28;20194;-68
2022/10/29 14:18:17;;;;;;;8.53;2.30;;;;;;;;;;5043409;28;20257;-67
2022/10/29 14:20:52;;;;;;;7.80;2.53;;;;;;;;;;5050251;28;20221;-68
2022/10/29 14:23:19;;;;;;;9.77;3.10;;;;;;;;;;5047715;28;20203;-67
2022/10/29 14:25:49;;;;;;;10.80;3.10;;;;;;;;;;5049692;28;20296;-68
2022/10/29 14:28:16;;;;;;;9.40;2.77;;;;;;;;;;5043788;28;20853;-67
2022/10/29 14:30:47;;;;;;;8.30;2.37;;;;;;;;;;5044662;28;20236;-70
2022/10/29 14:33:17;;;;;;;8.00;2.47;;;;;;;;;;5047894;28;20218;-68
2022/10/29 14:35:44;;;;;;;13.20;2.50;;;;;;;;;;5054732;28;20187;-70
2022/10/29 14:38:11;;;;;;;8.37;2.63;;;;;;;;;;5051165;28;20190;-68
2022/10/29 14:40:38;;;;;;;9.67;3.17;;;;;;;;;;5052605;28;20527;-67
2022/10/29 14:43:04;;;;;;;6.60;2.33;;;;;;;;;;5052849;28;20572;-67
2022/10/29 14:45:31;;;;;;;7.87;2.33;;;;;;;;;;5055094;28;20203;-68
2022/10/29 14:47:59;;;;;;;10.27;2.83;;;;;;;;;;5044076;28;20238;-67
2022/10/29 14:50:26;;;;;;;9.67;2.80;;;;;;;;;;5058419;28;20252;-68
2022/10/29 14:53:02;;;;;;;13.60;5.03;;;;;;;;;;5028802;28;20729;-67